createdAt,value
2018-12-14T00:00:10.669Z,4.828032
2018-12-14T00:00:23.077Z,1.609344
2018-12-14T00:00:35.513Z,1.609344
2018-12-14T00:00:47.901Z,6.437376
2018-12-14T00:01:00.265Z,8.04672
2018-12-14T00:01:12.611Z,3.218688
2018-12-14T00:01:24.948Z,1.609344
2018-12-14T00:01:37.279Z,1.609344
2018-12-14T00:01:49.634Z,1.609344
2018-12-14T00:02:02.216Z,0
2018-12-14T00:02:14.621Z,0
2018-12-14T00:02:26.963Z,0
2018-12-14T00:02:39.315Z,0
2018-12-14T00:02:51.687Z,0
2018-12-14T00:03:04.071Z,0
2018-12-14T00:03:16.565Z,0
2018-12-14T00:03:28.928Z,0
2018-12-14T00:03:41.301Z,0
2018-12-14T00:03:53.757Z,0
2018-12-14T00:04:06.122Z,0
2018-12-14T00:04:18.546Z,0
2018-12-14T00:04:30.895Z,0
2018-12-14T00:04:43.235Z,0
2018-12-14T00:04:55.582Z,0
2018-12-14T00:05:07.944Z,3.218688
2018-12-14T00:05:20.275Z,1.609344
2018-12-14T00:05:32.628Z,4.828032
2018-12-14T00:05:44.979Z,4.828032
2018-12-14T00:05:57.318Z,3.218688
2018-12-14T00:06:09.668Z,3.218688
2018-12-14T00:06:22.021Z,1.609344
2018-12-14T00:06:34.371Z,0
2018-12-14T00:06:46.734Z,0
2018-12-14T00:06:59.080Z,1.609344
2018-12-14T00:07:11.575Z,3.218688
2018-12-14T00:07:23.914Z,1.609344
2018-12-14T00:07:36.259Z,1.609344
2018-12-14T00:07:48.615Z,3.218688
2018-12-14T00:08:01.001Z,6.437376
2018-12-14T00:08:13.342Z,3.218688
2018-12-14T00:08:25.712Z,3.218688
2018-12-14T00:08:38.189Z,1.609344
2018-12-14T00:08:50.537Z,0
2018-12-14T00:09:02.913Z,1.609344
2018-12-14T00:09:15.295Z,1.609344
2018-12-14T00:09:27.651Z,1.609344
2018-12-14T00:09:40.030Z,0
2018-12-14T00:09:52.371Z,0
2018-12-14T00:10:04.716Z,0
2018-12-14T00:10:17.091Z,1.609344
2018-12-14T00:10:29.438Z,1.609344
2018-12-14T00:10:41.781Z,0
2018-12-14T00:10:54.121Z,0
2018-12-14T00:11:07.562Z,0
2018-12-14T00:11:19.895Z,1.609344
2018-12-14T00:11:32.311Z,0
2018-12-14T00:11:51.108Z,0
2018-12-14T00:12:03.441Z,0
2018-12-14T00:12:15.810Z,1.609344
2018-12-14T00:12:28.151Z,3.218688
2018-12-14T00:12:40.507Z,3.218688
2018-12-14T00:12:52.871Z,1.609344
2018-12-14T00:13:05.236Z,0
2018-12-14T00:13:17.611Z,0
2018-12-14T00:13:30.003Z,0
2018-12-14T00:13:42.351Z,0
2018-12-14T00:13:54.679Z,0
2018-12-14T00:14:07.023Z,0
2018-12-14T00:14:19.382Z,0
2018-12-14T00:14:31.733Z,1.609344
2018-12-14T00:14:44.114Z,1.609344
2018-12-14T00:14:56.438Z,0
2018-12-14T00:15:08.770Z,0
2018-12-14T00:15:21.115Z,0
2018-12-14T00:15:33.471Z,0
2018-12-14T00:15:45.809Z,0
2018-12-14T00:15:58.145Z,0
2018-12-14T00:16:10.495Z,0
2018-12-14T00:16:22.851Z,0
2018-12-14T00:16:35.277Z,0
2018-12-14T00:16:47.617Z,0
2018-12-14T00:16:59.955Z,0
2018-12-14T00:17:12.292Z,6.437376
2018-12-14T00:17:24.876Z,1.609344
2018-12-14T00:17:37.222Z,1.609344
2018-12-14T00:17:49.555Z,1.609344
2018-12-14T00:18:01.901Z,4.828032
2018-12-14T00:18:14.259Z,4.828032
2018-12-14T00:18:26.962Z,1.609344
2018-12-14T00:18:39.308Z,1.609344
2018-12-14T00:18:51.667Z,1.609344
2018-12-14T00:19:04.002Z,6.437376
2018-12-14T00:19:16.394Z,8.04672
2018-12-14T00:19:28.724Z,1.609344
2018-12-14T00:19:41.075Z,8.04672
2018-12-14T00:19:53.488Z,8.04672
2018-12-14T00:20:05.825Z,3.218688
2018-12-14T00:20:18.174Z,3.218688
2018-12-14T00:20:30.525Z,0
2018-12-14T00:20:42.872Z,3.218688
2018-12-14T00:20:55.282Z,1.609344
2018-12-14T00:21:07.625Z,1.609344
2018-12-14T00:21:19.959Z,1.609344
2018-12-14T00:21:32.308Z,3.218688
2018-12-14T00:21:44.666Z,1.609344
2018-12-14T00:21:57.095Z,3.218688
2018-12-14T00:22:09.466Z,3.218688
2018-12-14T00:22:21.825Z,3.218688
2018-12-14T00:22:34.195Z,3.218688
2018-12-14T00:22:46.551Z,6.437376
2018-12-14T00:22:58.913Z,1.609344
2018-12-14T00:23:11.287Z,1.609344
2018-12-14T00:23:23.660Z,3.218688
2018-12-14T00:23:35.992Z,0
2018-12-14T00:23:48.346Z,0
2018-12-14T00:24:00.699Z,1.609344
2018-12-14T00:24:13.044Z,1.609344
2018-12-14T00:24:25.398Z,1.609344
2018-12-14T00:24:37.758Z,0
2018-12-14T00:24:50.109Z,6.437376
2018-12-14T00:25:02.476Z,1.609344
2018-12-14T00:25:14.815Z,1.609344
2018-12-14T00:25:27.174Z,1.609344
2018-12-14T00:25:39.547Z,0
2018-12-14T00:25:51.997Z,0
2018-12-14T00:26:04.334Z,3.218688
2018-12-14T00:26:16.680Z,0
2018-12-14T00:26:29.179Z,0
2018-12-14T00:26:41.554Z,0
2018-12-14T00:26:53.950Z,0
2018-12-14T00:27:06.298Z,0
2018-12-14T00:27:18.623Z,0
2018-12-14T00:27:30.970Z,3.218688
2018-12-14T00:27:43.308Z,1.609344
2018-12-14T00:27:55.870Z,3.218688
2018-12-14T00:28:08.213Z,1.609344
2018-12-14T00:28:20.665Z,0
2018-12-14T00:28:33.178Z,1.609344
2018-12-14T00:28:45.517Z,1.609344
2018-12-14T00:28:57.844Z,1.609344
2018-12-14T00:29:10.192Z,1.609344
2018-12-14T00:29:22.605Z,1.609344
2018-12-14T00:29:34.934Z,1.609344
2018-12-14T00:29:48.450Z,1.609344
2018-12-14T00:30:00.936Z,1.609344
2018-12-14T00:30:13.270Z,1.609344
2018-12-14T00:30:25.614Z,3.218688
2018-12-14T00:30:38.115Z,3.218688
2018-12-14T00:30:50.452Z,3.218688
2018-12-14T00:31:02.780Z,3.218688
2018-12-14T00:31:15.262Z,1.609344
2018-12-14T00:31:27.601Z,3.218688
2018-12-14T00:31:40.080Z,3.218688
2018-12-14T00:31:52.585Z,3.218688
2018-12-14T00:32:04.998Z,3.218688
2018-12-14T00:32:17.346Z,3.218688
2018-12-14T00:32:29.883Z,3.218688
2018-12-14T00:32:42.226Z,3.218688
2018-12-14T00:32:54.756Z,4.828032
2018-12-14T00:33:07.199Z,4.828032
2018-12-14T00:33:19.533Z,3.218688
2018-12-14T00:33:31.867Z,3.218688
2018-12-14T00:33:44.200Z,1.609344
2018-12-14T00:33:56.539Z,1.609344
2018-12-14T00:34:08.878Z,1.609344
2018-12-14T00:34:21.234Z,3.218688
2018-12-14T00:34:33.568Z,8.04672
2018-12-14T00:34:45.910Z,8.04672
2018-12-14T00:34:58.245Z,8.04672
2018-12-14T00:35:10.656Z,3.218688
2018-12-14T00:35:23.079Z,3.218688
2018-12-14T00:35:35.431Z,1.609344
2018-12-14T00:35:47.770Z,0
2018-12-14T00:36:00.171Z,0
2018-12-14T00:36:12.512Z,0
2018-12-14T00:36:24.857Z,0
2018-12-14T00:36:37.226Z,1.609344
2018-12-14T00:36:49.576Z,0
2018-12-14T00:37:01.911Z,1.609344
2018-12-14T00:37:14.233Z,1.609344
2018-12-14T00:37:26.580Z,3.218688
2018-12-14T00:37:38.918Z,3.218688
2018-12-14T00:37:51.284Z,3.218688
2018-12-14T00:38:03.780Z,1.609344
2018-12-14T00:38:16.242Z,1.609344
2018-12-14T00:38:28.587Z,1.609344
2018-12-14T00:38:40.962Z,0
2018-12-14T00:38:53.332Z,1.609344
2018-12-14T00:39:05.676Z,6.437376
2018-12-14T00:39:18.035Z,6.437376
2018-12-14T00:39:30.398Z,1.609344
2018-12-14T00:39:42.844Z,1.609344
2018-12-14T00:39:55.244Z,1.609344
2018-12-14T00:40:07.576Z,1.609344
2018-12-14T00:40:20.160Z,1.609344
2018-12-14T00:40:32.584Z,1.609344
2018-12-14T00:40:44.932Z,3.218688
2018-12-14T00:40:57.394Z,3.218688
2018-12-14T00:41:09.910Z,3.218688
2018-12-14T00:41:22.257Z,3.218688
2018-12-14T00:41:34.589Z,1.609344
2018-12-14T00:41:53.055Z,3.218688
2018-12-14T00:42:05.402Z,3.218688
2018-12-14T00:42:17.759Z,1.609344
2018-12-14T00:42:30.122Z,1.609344
2018-12-14T00:42:42.569Z,0
2018-12-14T00:42:54.922Z,0
2018-12-14T00:43:07.275Z,0
2018-12-14T00:43:19.652Z,0
2018-12-14T00:43:31.993Z,3.218688
2018-12-14T00:43:44.348Z,1.609344
2018-12-14T00:43:56.685Z,0
2018-12-14T00:44:09.038Z,1.609344
2018-12-14T00:44:21.370Z,3.218688
2018-12-14T00:44:33.720Z,3.218688
2018-12-14T00:44:46.044Z,3.218688
2018-12-14T00:44:58.393Z,0
2018-12-14T00:45:10.738Z,3.218688
2018-12-14T00:45:23.076Z,3.218688
2018-12-14T00:45:35.413Z,3.218688
2018-12-14T00:45:47.763Z,1.609344
2018-12-14T00:46:00.164Z,0
2018-12-14T00:46:12.662Z,0
2018-12-14T00:46:25.013Z,0
2018-12-14T00:46:37.347Z,0
2018-12-14T00:46:49.696Z,0
2018-12-14T00:47:02.035Z,0
2018-12-14T00:47:15.355Z,1.609344
2018-12-14T00:47:27.707Z,1.609344
2018-12-14T00:47:40.145Z,1.609344
2018-12-14T00:47:52.495Z,3.218688
2018-12-14T00:48:04.834Z,1.609344
2018-12-14T00:48:17.197Z,1.609344
2018-12-14T00:48:29.550Z,3.218688
2018-12-14T00:48:41.884Z,1.609344
2018-12-14T00:48:54.250Z,3.218688
2018-12-14T00:49:06.738Z,8.04672
2018-12-14T00:49:19.100Z,8.04672
2018-12-14T00:49:31.437Z,8.04672
2018-12-14T00:49:43.783Z,3.218688
2018-12-14T00:49:56.123Z,6.437376
2018-12-14T00:50:08.554Z,3.218688
2018-12-14T00:50:20.890Z,1.609344
2018-12-14T00:50:33.220Z,3.218688
2018-12-14T00:50:45.558Z,1.609344
2018-12-14T00:50:57.895Z,1.609344
2018-12-14T00:51:10.235Z,3.218688
2018-12-14T00:51:22.641Z,1.609344
2018-12-14T00:51:35.037Z,6.437376
2018-12-14T00:51:47.386Z,6.437376
2018-12-14T00:51:59.731Z,1.609344
2018-12-14T00:52:12.185Z,1.609344
2018-12-14T00:52:24.525Z,0
2018-12-14T00:52:36.855Z,1.609344
2018-12-14T00:52:49.500Z,1.609344
2018-12-14T00:53:01.847Z,1.609344
2018-12-14T00:53:14.216Z,1.609344
2018-12-14T00:53:26.566Z,1.609344
2018-12-14T00:53:39.109Z,3.218688
2018-12-14T00:53:51.451Z,3.218688
2018-12-14T00:54:03.851Z,6.437376
2018-12-14T00:54:16.250Z,3.218688
2018-12-14T00:54:28.588Z,1.609344
2018-12-14T00:54:40.930Z,1.609344
2018-12-14T00:54:53.252Z,1.609344
2018-12-14T00:55:05.727Z,3.218688
2018-12-14T00:55:18.160Z,4.828032
2018-12-14T00:55:30.551Z,3.218688
2018-12-14T00:55:42.954Z,1.609344
2018-12-14T00:55:55.309Z,6.437376
2018-12-14T00:56:07.667Z,3.218688
2018-12-14T00:56:20.016Z,3.218688
2018-12-14T00:56:32.351Z,1.609344
2018-12-14T00:56:44.830Z,3.218688
2018-12-14T00:56:57.180Z,3.218688
2018-12-14T00:57:09.614Z,3.218688
2018-12-14T00:57:21.952Z,3.218688
2018-12-14T00:57:34.323Z,1.609344
2018-12-14T00:57:46.776Z,0
2018-12-14T00:57:59.128Z,0
2018-12-14T00:58:11.475Z,0
2018-12-14T00:58:23.818Z,0
2018-12-14T00:58:36.162Z,0
2018-12-14T00:58:48.507Z,1.609344
2018-12-14T00:59:00.913Z,0
2018-12-14T00:59:13.252Z,0
2018-12-14T00:59:25.589Z,0
2018-12-14T00:59:38.009Z,1.609344
2018-12-14T00:59:50.354Z,0
2018-12-14T01:00:02.690Z,1.609344
2018-12-14T01:00:15.198Z,4.828032
2018-12-14T01:00:27.619Z,8.04672
2018-12-14T01:00:39.974Z,6.437376
2018-12-14T01:00:52.338Z,4.828032
2018-12-14T01:01:04.691Z,6.437376
2018-12-14T01:01:17.042Z,6.437376
2018-12-14T01:01:29.376Z,4.828032
2018-12-14T01:01:41.723Z,1.609344
2018-12-14T01:01:54.073Z,3.218688
2018-12-14T01:02:06.733Z,1.609344
2018-12-14T01:02:19.061Z,0
2018-12-14T01:02:31.400Z,0
2018-12-14T01:02:43.739Z,1.609344
2018-12-14T01:02:56.119Z,0
2018-12-14T01:03:08.813Z,0
2018-12-14T01:03:21.302Z,3.218688
2018-12-14T01:03:33.652Z,3.218688
2018-12-14T01:03:46.022Z,1.609344
2018-12-14T01:03:58.365Z,3.218688
2018-12-14T01:04:10.718Z,1.609344
2018-12-14T01:04:23.086Z,1.609344
2018-12-14T01:04:35.427Z,0
2018-12-14T01:04:47.790Z,1.609344
2018-12-14T01:05:00.155Z,1.609344
2018-12-14T01:05:12.492Z,1.609344
2018-12-14T01:05:24.838Z,1.609344
2018-12-14T01:05:37.199Z,1.609344
2018-12-14T01:05:49.623Z,3.218688
2018-12-14T01:06:01.972Z,1.609344
2018-12-14T01:06:14.824Z,1.609344
2018-12-14T01:06:27.166Z,1.609344
2018-12-14T01:06:39.522Z,0
2018-12-14T01:06:51.869Z,0
2018-12-14T01:07:04.224Z,0
2018-12-14T01:07:16.558Z,0
2018-12-14T01:07:28.890Z,0
2018-12-14T01:07:41.234Z,6.437376
2018-12-14T01:07:53.578Z,3.218688
2018-12-14T01:08:05.931Z,1.609344
2018-12-14T01:08:18.521Z,1.609344
2018-12-14T01:08:30.851Z,1.609344
2018-12-14T01:08:43.212Z,3.218688
2018-12-14T01:08:55.553Z,1.609344
2018-12-14T01:09:07.891Z,1.609344
2018-12-14T01:09:20.230Z,3.218688
2018-12-14T01:09:32.571Z,1.609344
2018-12-14T01:09:44.913Z,0
2018-12-14T01:09:57.266Z,0
2018-12-14T01:10:09.664Z,0
2018-12-14T01:10:22.007Z,0
2018-12-14T01:10:34.389Z,0
2018-12-14T01:10:46.731Z,0
2018-12-14T01:10:59.085Z,0
2018-12-14T01:11:11.422Z,0
2018-12-14T01:11:23.789Z,0
2018-12-14T01:11:36.124Z,1.609344
2018-12-14T01:11:48.457Z,0
2018-12-14T01:12:07.176Z,0
2018-12-14T01:12:19.517Z,0
2018-12-14T01:12:31.847Z,1.609344
2018-12-14T01:12:44.189Z,0
2018-12-14T01:12:56.555Z,3.218688
2018-12-14T01:13:08.914Z,1.609344
2018-12-14T01:13:21.408Z,0
2018-12-14T01:13:33.970Z,1.609344
2018-12-14T01:13:46.379Z,1.609344
2018-12-14T01:13:58.721Z,0
2018-12-14T01:14:11.159Z,1.609344
2018-12-14T01:14:23.506Z,0
2018-12-14T01:14:35.834Z,0
2018-12-14T01:14:48.172Z,1.609344
2018-12-14T01:15:00.530Z,8.04672
2018-12-14T01:15:12.892Z,3.218688
2018-12-14T01:15:25.280Z,3.218688
2018-12-14T01:15:37.712Z,3.218688
2018-12-14T01:15:50.059Z,9.656064
2018-12-14T01:16:02.385Z,6.437376
2018-12-14T01:16:14.715Z,4.828032
2018-12-14T01:16:27.083Z,1.609344
2018-12-14T01:16:39.425Z,1.609344
2018-12-14T01:16:51.766Z,1.609344
2018-12-14T01:17:04.122Z,0
2018-12-14T01:17:16.675Z,1.609344
2018-12-14T01:17:29.024Z,3.218688
2018-12-14T01:17:41.479Z,3.218688
2018-12-14T01:17:53.854Z,1.609344
2018-12-14T01:18:06.196Z,0
2018-12-14T01:18:18.935Z,0
2018-12-14T01:18:31.292Z,0
2018-12-14T01:18:43.628Z,0
2018-12-14T01:18:56.002Z,0
2018-12-14T01:19:08.335Z,0
2018-12-14T01:19:20.689Z,0
2018-12-14T01:19:33.040Z,0
2018-12-14T01:19:45.395Z,0
2018-12-14T01:19:57.762Z,0
2018-12-14T01:20:10.111Z,0
2018-12-14T01:20:22.455Z,1.609344
2018-12-14T01:20:34.856Z,3.218688
2018-12-14T01:20:47.211Z,3.218688
2018-12-14T01:20:59.548Z,1.609344
2018-12-14T01:21:11.932Z,1.609344
2018-12-14T01:21:24.263Z,0
2018-12-14T01:21:36.601Z,0
2018-12-14T01:21:48.968Z,0
2018-12-14T01:22:01.314Z,0
2018-12-14T01:22:13.659Z,0
2018-12-14T01:22:26.028Z,0
2018-12-14T01:22:38.368Z,0
2018-12-14T01:22:51.422Z,0
2018-12-14T01:23:03.769Z,0
2018-12-14T01:23:16.107Z,0
2018-12-14T01:23:28.441Z,0
2018-12-14T01:23:40.780Z,0
2018-12-14T01:23:53.147Z,1.609344
2018-12-14T01:24:05.538Z,4.828032
2018-12-14T01:24:17.877Z,4.828032
2018-12-14T01:24:30.232Z,3.218688
2018-12-14T01:24:42.586Z,1.609344
2018-12-14T01:24:54.955Z,1.609344
2018-12-14T01:25:07.284Z,4.828032
2018-12-14T01:25:19.614Z,1.609344
2018-12-14T01:25:31.964Z,3.218688
2018-12-14T01:25:44.295Z,3.218688
2018-12-14T01:25:56.656Z,0
2018-12-14T01:26:09.144Z,3.218688
2018-12-14T01:26:21.486Z,4.828032
2018-12-14T01:26:33.986Z,3.218688
2018-12-14T01:26:46.335Z,3.218688
2018-12-14T01:26:58.678Z,3.218688
2018-12-14T01:27:11.094Z,1.609344
2018-12-14T01:27:23.429Z,0
2018-12-14T01:27:35.789Z,1.609344
2018-12-14T01:27:48.138Z,1.609344
2018-12-14T01:28:00.474Z,1.609344
2018-12-14T01:28:12.973Z,1.609344
2018-12-14T01:28:25.388Z,1.609344
2018-12-14T01:28:37.724Z,1.609344
2018-12-14T01:28:50.071Z,3.218688
2018-12-14T01:29:02.425Z,6.437376
2018-12-14T01:29:14.814Z,1.609344
2018-12-14T01:29:27.155Z,0
2018-12-14T01:29:39.625Z,0
2018-12-14T01:29:51.990Z,3.218688
2018-12-14T01:30:04.345Z,6.437376
2018-12-14T01:30:16.685Z,6.437376
2018-12-14T01:30:29.028Z,1.609344
2018-12-14T01:30:41.563Z,3.218688
2018-12-14T01:30:53.913Z,6.437376
2018-12-14T01:31:06.274Z,3.218688
2018-12-14T01:31:18.614Z,1.609344
2018-12-14T01:31:30.956Z,8.04672
2018-12-14T01:31:43.301Z,8.04672
2018-12-14T01:31:55.807Z,3.218688
2018-12-14T01:32:08.155Z,3.218688
2018-12-14T01:32:20.509Z,1.609344
2018-12-14T01:32:32.866Z,3.218688
2018-12-14T01:32:45.210Z,3.218688
2018-12-14T01:32:57.716Z,3.218688
2018-12-14T01:33:10.189Z,1.609344
2018-12-14T01:33:22.527Z,0
2018-12-14T01:33:34.862Z,0
2018-12-14T01:33:47.228Z,3.218688
2018-12-14T01:33:59.581Z,1.609344
2018-12-14T01:34:11.934Z,1.609344
2018-12-14T01:34:24.294Z,1.609344
2018-12-14T01:34:36.914Z,1.609344
2018-12-14T01:34:49.258Z,3.218688
2018-12-14T01:35:01.618Z,3.218688
2018-12-14T01:35:13.973Z,3.218688
2018-12-14T01:35:26.449Z,3.218688
2018-12-14T01:35:38.799Z,3.218688
2018-12-14T01:35:51.145Z,3.218688
2018-12-14T01:36:03.500Z,1.609344
2018-12-14T01:36:15.830Z,0
2018-12-14T01:36:28.178Z,1.609344
2018-12-14T01:36:40.527Z,1.609344
2018-12-14T01:36:52.942Z,3.218688
2018-12-14T01:37:05.284Z,1.609344
2018-12-14T01:37:17.641Z,1.609344
2018-12-14T01:37:29.993Z,3.218688
2018-12-14T01:37:42.335Z,1.609344
2018-12-14T01:37:54.689Z,6.437376
2018-12-14T01:38:07.376Z,6.437376
2018-12-14T01:38:19.709Z,4.828032
2018-12-14T01:38:32.048Z,4.828032
2018-12-14T01:38:44.403Z,6.437376
2018-12-14T01:38:56.738Z,4.828032
2018-12-14T01:39:09.087Z,4.828032
2018-12-14T01:39:21.427Z,3.218688
2018-12-14T01:39:33.774Z,1.609344
2018-12-14T01:39:46.151Z,6.437376
2018-12-14T01:39:58.672Z,6.437376
2018-12-14T01:40:11.010Z,3.218688
2018-12-14T01:40:23.362Z,3.218688
2018-12-14T01:40:35.794Z,1.609344
2018-12-14T01:40:48.157Z,1.609344
2018-12-14T01:41:00.625Z,0
2018-12-14T01:41:13.124Z,1.609344
2018-12-14T01:41:25.490Z,3.218688
2018-12-14T01:41:37.830Z,3.218688
2018-12-14T01:41:50.149Z,1.609344
2018-12-14T01:42:09.304Z,1.609344
2018-12-14T01:42:21.660Z,1.609344
2018-12-14T01:42:34.003Z,0
2018-12-14T01:42:46.365Z,0
2018-12-14T01:42:58.697Z,0
2018-12-14T01:43:11.052Z,0
2018-12-14T01:43:23.395Z,0
2018-12-14T01:43:35.754Z,0
2018-12-14T01:43:48.106Z,0
2018-12-14T01:44:00.439Z,0
2018-12-14T01:44:12.789Z,0
2018-12-14T01:44:25.349Z,0
2018-12-14T01:44:37.687Z,0
2018-12-14T01:44:50.032Z,0
2018-12-14T01:45:02.369Z,0
2018-12-14T01:45:14.749Z,1.609344
2018-12-14T01:45:27.102Z,6.437376
2018-12-14T01:45:39.503Z,3.218688
2018-12-14T01:45:51.917Z,1.609344
2018-12-14T01:46:04.303Z,1.609344
2018-12-14T01:46:16.675Z,0
2018-12-14T01:46:29.016Z,0
2018-12-14T01:46:41.349Z,0
2018-12-14T01:46:53.706Z,0
2018-12-14T01:47:06.102Z,0
2018-12-14T01:47:18.453Z,0
2018-12-14T01:47:30.790Z,0
2018-12-14T01:47:43.186Z,0
2018-12-14T01:47:55.522Z,0
2018-12-14T01:48:07.887Z,0
2018-12-14T01:48:21.605Z,0
2018-12-14T01:48:33.956Z,0
2018-12-14T01:48:46.323Z,0
2018-12-14T01:48:58.668Z,0
2018-12-14T01:49:11.004Z,0
2018-12-14T01:49:23.382Z,0
2018-12-14T01:49:35.773Z,0
2018-12-14T01:49:48.129Z,1.609344
2018-12-14T01:50:00.496Z,1.609344
2018-12-14T01:50:12.985Z,1.609344
2018-12-14T01:50:25.323Z,1.609344
2018-12-14T01:50:37.684Z,1.609344
2018-12-14T01:50:50.015Z,1.609344
2018-12-14T01:51:02.370Z,3.218688
2018-12-14T01:51:14.704Z,0
2018-12-14T01:51:27.070Z,0
2018-12-14T01:51:39.441Z,0
2018-12-14T01:51:51.802Z,0
2018-12-14T01:52:04.162Z,0
2018-12-14T01:52:16.617Z,0
2018-12-14T01:52:28.961Z,0
2018-12-14T01:52:41.308Z,0
2018-12-14T01:52:53.743Z,1.609344
2018-12-14T01:53:06.099Z,1.609344
2018-12-14T01:53:18.447Z,1.609344
2018-12-14T01:53:30.785Z,3.218688
2018-12-14T01:53:43.268Z,3.218688
2018-12-14T01:53:55.682Z,3.218688
2018-12-14T01:54:08.189Z,3.218688
2018-12-14T01:54:20.554Z,1.609344
2018-12-14T01:54:32.912Z,0
2018-12-14T01:54:45.256Z,1.609344
2018-12-14T01:54:57.733Z,3.218688
2018-12-14T01:55:10.083Z,3.218688
2018-12-14T01:55:22.544Z,0
2018-12-14T01:55:34.900Z,0
2018-12-14T01:55:47.236Z,0
2018-12-14T01:55:59.582Z,1.609344
2018-12-14T01:56:12.070Z,1.609344
2018-12-14T01:56:24.446Z,0
2018-12-14T01:56:36.795Z,1.609344
2018-12-14T01:56:49.198Z,1.609344
2018-12-14T01:57:01.590Z,1.609344
2018-12-14T01:57:13.957Z,0
2018-12-14T01:57:26.308Z,1.609344
2018-12-14T01:57:38.671Z,0
2018-12-14T01:57:51.009Z,0
2018-12-14T01:58:03.350Z,0
2018-12-14T01:58:15.702Z,0
2018-12-14T01:58:28.051Z,3.218688
2018-12-14T01:58:40.389Z,1.609344
2018-12-14T01:58:52.727Z,1.609344
2018-12-14T01:59:05.215Z,1.609344
2018-12-14T01:59:17.587Z,1.609344
2018-12-14T01:59:29.940Z,0
2018-12-14T01:59:42.287Z,0
2018-12-14T01:59:54.613Z,0
2018-12-14T02:00:07.222Z,3.218688
2018-12-14T02:00:19.593Z,4.828032
2018-12-14T02:00:32.045Z,3.218688
2018-12-14T02:00:44.496Z,1.609344
2018-12-14T02:00:56.860Z,4.828032
2018-12-14T02:01:09.276Z,3.218688
2018-12-14T02:01:21.620Z,3.218688
2018-12-14T02:01:33.957Z,1.609344
2018-12-14T02:01:46.301Z,1.609344
2018-12-14T02:01:58.788Z,1.609344
2018-12-14T02:02:11.262Z,0
2018-12-14T02:02:23.619Z,1.609344
2018-12-14T02:02:35.963Z,0
2018-12-14T02:02:48.318Z,0
2018-12-14T02:03:00.674Z,0
2018-12-14T02:03:13.092Z,0
2018-12-14T02:03:25.632Z,0
2018-12-14T02:03:37.982Z,0
2018-12-14T02:03:50.339Z,0
2018-12-14T02:04:02.687Z,0
2018-12-14T02:04:15.035Z,0
2018-12-14T02:04:27.459Z,0
2018-12-14T02:04:40.581Z,0
2018-12-14T02:04:52.935Z,0
2018-12-14T02:05:05.315Z,0
2018-12-14T02:05:17.682Z,1.609344
2018-12-14T02:05:30.108Z,0
2018-12-14T02:05:42.526Z,0
2018-12-14T02:05:54.885Z,0
2018-12-14T02:06:07.238Z,0
2018-12-14T02:06:19.596Z,0
2018-12-14T02:06:31.950Z,0
2018-12-14T02:06:44.334Z,0
2018-12-14T02:06:56.779Z,0
2018-12-14T02:07:09.126Z,0
2018-12-14T02:07:21.465Z,0
2018-12-14T02:07:33.795Z,0
2018-12-14T02:07:46.137Z,0
2018-12-14T02:07:58.470Z,3.218688
2018-12-14T02:08:10.875Z,6.437376
2018-12-14T02:08:23.204Z,1.609344
2018-12-14T02:08:35.548Z,3.218688
2018-12-14T02:08:47.882Z,1.609344
2018-12-14T02:09:00.308Z,1.609344
2018-12-14T02:09:12.658Z,1.609344
2018-12-14T02:09:25.003Z,0
2018-12-14T02:09:37.361Z,0
2018-12-14T02:09:49.751Z,1.609344
2018-12-14T02:10:02.204Z,0
2018-12-14T02:10:14.553Z,3.218688
2018-12-14T02:10:26.888Z,3.218688
2018-12-14T02:10:39.233Z,3.218688
2018-12-14T02:10:51.571Z,1.609344
2018-12-14T02:11:03.915Z,3.218688
2018-12-14T02:11:16.271Z,4.828032
2018-12-14T02:11:28.645Z,3.218688
2018-12-14T02:11:40.977Z,3.218688
2018-12-14T02:11:53.324Z,0
2018-12-14T02:12:12.429Z,1.609344
2018-12-14T02:12:24.792Z,0
2018-12-14T02:12:37.247Z,0
2018-12-14T02:12:49.596Z,3.218688
2018-12-14T02:13:01.946Z,3.218688
2018-12-14T02:13:14.496Z,3.218688
2018-12-14T02:13:26.844Z,3.218688
2018-12-14T02:13:39.188Z,1.609344
2018-12-14T02:13:51.531Z,1.609344
2018-12-14T02:14:03.894Z,3.218688
2018-12-14T02:14:17.781Z,1.609344
2018-12-14T02:14:30.152Z,1.609344
2018-12-14T02:14:42.489Z,1.609344
2018-12-14T02:14:54.861Z,1.609344
2018-12-14T02:15:07.201Z,3.218688
2018-12-14T02:15:19.561Z,1.609344
2018-12-14T02:15:31.912Z,1.609344
2018-12-14T02:15:44.257Z,0
2018-12-14T02:15:56.613Z,1.609344
2018-12-14T02:16:08.969Z,0
2018-12-14T02:16:21.317Z,1.609344
2018-12-14T02:16:33.652Z,3.218688
2018-12-14T02:16:45.991Z,3.218688
2018-12-14T02:16:58.348Z,3.218688
2018-12-14T02:17:10.693Z,1.609344
2018-12-14T02:17:23.156Z,6.437376
2018-12-14T02:17:35.512Z,8.04672
2018-12-14T02:17:47.920Z,6.437376
2018-12-14T02:18:00.335Z,6.437376
2018-12-14T02:18:12.683Z,6.437376
2018-12-14T02:18:25.284Z,1.609344
2018-12-14T02:18:37.646Z,6.437376
2018-12-14T02:18:49.999Z,1.609344
2018-12-14T02:19:02.353Z,1.609344
2018-12-14T02:19:14.709Z,1.609344
2018-12-14T02:19:28.224Z,1.609344
2018-12-14T02:19:40.594Z,1.609344
2018-12-14T02:19:52.972Z,1.609344
2018-12-14T02:20:05.454Z,1.609344
2018-12-14T02:20:17.838Z,1.609344
2018-12-14T02:20:30.179Z,6.437376
2018-12-14T02:20:42.527Z,3.218688
2018-12-14T02:20:54.875Z,8.04672
2018-12-14T02:21:07.227Z,3.218688
2018-12-14T02:21:19.593Z,6.437376
2018-12-14T02:21:31.930Z,8.04672
2018-12-14T02:21:44.364Z,3.218688
2018-12-14T02:21:56.723Z,1.609344
2018-12-14T02:22:09.070Z,1.609344
2018-12-14T02:22:21.416Z,1.609344
2018-12-14T02:22:33.787Z,6.437376
2018-12-14T02:22:46.173Z,6.437376
2018-12-14T02:22:58.549Z,4.828032
2018-12-14T02:23:10.900Z,3.218688
2018-12-14T02:23:23.277Z,3.218688
2018-12-14T02:23:35.630Z,6.437376
2018-12-14T02:23:48.134Z,6.437376
2018-12-14T02:24:00.504Z,4.828032
2018-12-14T02:24:12.867Z,12.874752
2018-12-14T02:24:25.233Z,6.437376
2018-12-14T02:24:37.571Z,9.656064
2018-12-14T02:24:50.083Z,8.04672
2018-12-14T02:25:02.448Z,11.265408
2018-12-14T02:25:14.808Z,6.437376
2018-12-14T02:25:27.156Z,6.437376
2018-12-14T02:25:39.506Z,9.656064
2018-12-14T02:25:51.839Z,9.656064
2018-12-14T02:26:04.174Z,8.04672
2018-12-14T02:26:16.508Z,6.437376
2018-12-14T02:26:29.026Z,3.218688
2018-12-14T02:26:41.366Z,3.218688
2018-12-14T02:26:53.696Z,6.437376
2018-12-14T02:27:06.054Z,3.218688
2018-12-14T02:27:18.380Z,1.609344
2018-12-14T02:27:30.802Z,1.609344
2018-12-14T02:27:43.273Z,1.609344
2018-12-14T02:27:55.611Z,3.218688
2018-12-14T02:28:07.962Z,3.218688
2018-12-14T02:28:20.487Z,6.437376
2018-12-14T02:28:32.840Z,3.218688
2018-12-14T02:28:45.230Z,6.437376
2018-12-14T02:28:57.584Z,3.218688
2018-12-14T02:29:09.918Z,6.437376
2018-12-14T02:29:22.258Z,4.828032
2018-12-14T02:29:34.600Z,1.609344
2018-12-14T02:29:47.209Z,3.218688
2018-12-14T02:29:59.594Z,1.609344
2018-12-14T02:30:11.992Z,3.218688
2018-12-14T02:30:24.388Z,12.874752
2018-12-14T02:30:37.004Z,9.656064
2018-12-14T02:30:49.425Z,12.874752
2018-12-14T02:31:01.919Z,8.04672
2018-12-14T02:31:14.294Z,11.265408
2018-12-14T02:31:26.649Z,6.437376
2018-12-14T02:31:39.003Z,6.437376
2018-12-14T02:31:51.512Z,3.218688
2018-12-14T02:32:03.887Z,6.437376
2018-12-14T02:32:16.258Z,4.828032
2018-12-14T02:32:28.633Z,3.218688
2018-12-14T02:32:41.026Z,1.609344
2018-12-14T02:32:53.551Z,3.218688
2018-12-14T02:33:05.921Z,1.609344
2018-12-14T02:33:18.306Z,8.04672
2018-12-14T02:33:30.660Z,3.218688
2018-12-14T02:33:43.029Z,8.04672
2018-12-14T02:33:55.414Z,8.04672
2018-12-14T02:34:07.842Z,8.04672
2018-12-14T02:34:20.216Z,11.265408
2018-12-14T02:34:32.672Z,6.437376
2018-12-14T02:34:45.036Z,3.218688
2018-12-14T02:34:57.453Z,8.04672
2018-12-14T02:35:09.831Z,9.656064
2018-12-14T02:35:22.272Z,8.04672
2018-12-14T02:35:34.797Z,6.437376
2018-12-14T02:35:47.141Z,6.437376
2018-12-14T02:35:59.529Z,8.04672